createdAt,value
2019-02-22T00:01:37.208Z,29.50
2019-02-22T00:04:06.682Z,30.40
2019-02-22T00:06:36.197Z,27.63
2019-02-22T00:09:06.902Z,28.03
2019-02-22T00:11:36.391Z,23.20
2019-02-22T00:14:05.891Z,26.60
2019-02-22T00:16:35.433Z,27.10
2019-02-22T00:19:04.921Z,28.53
2019-02-22T00:21:34.423Z,27.00
2019-02-22T00:24:04.039Z,28.33
2019-02-22T00:26:33.564Z,25.17
2019-02-22T00:29:03.076Z,39.33
2019-02-22T00:31:32.604Z,31.07
2019-02-22T00:34:02.106Z,26.57
2019-02-22T00:36:31.683Z,25.70
2019-02-22T00:39:01.156Z,27.33
2019-02-22T00:41:30.649Z,25.90
2019-02-22T00:44:00.207Z,30.70
2019-02-22T00:46:29.714Z,31.63
2019-02-22T00:48:59.205Z,32.63
2019-02-22T00:51:28.723Z,27.63
2019-02-22T00:53:58.250Z,30.20
2019-02-22T00:56:27.781Z,33.77
2019-02-22T00:58:57.275Z,31.57
2019-02-22T01:01:26.765Z,35.30
2019-02-22T01:03:56.364Z,32.80
2019-02-22T01:06:25.881Z,35.10
2019-02-22T01:08:55.439Z,35.97
2019-02-22T01:11:24.947Z,34.53
2019-02-22T01:13:54.482Z,36.87
2019-02-22T01:16:23.987Z,29.87
2019-02-22T01:18:53.482Z,29.43
2019-02-22T01:21:22.991Z,33.57
2019-02-22T01:23:52.499Z,37.47
2019-02-22T01:26:22.117Z,39.60
2019-02-22T01:28:51.584Z,30.13
2019-02-22T01:31:21.089Z,35.68
2019-02-22T01:33:50.588Z,34.00
2019-02-22T01:36:20.093Z,28.03
2019-02-22T01:38:49.614Z,39.78
2019-02-22T01:41:19.123Z,31.63
2019-02-22T01:43:48.641Z,37.57
2019-02-22T01:46:18.134Z,31.47
2019-02-22T01:48:47.698Z,33.10
2019-02-22T01:51:17.184Z,30.67
2019-02-22T01:53:46.671Z,32.43
2019-02-22T01:56:16.193Z,29.75
2019-02-22T01:58:48.646Z,38.35
2019-02-22T02:01:17.003Z,36.37
2019-02-22T02:03:46.504Z,32.80
2019-02-22T02:06:16.004Z,39.37
2019-02-22T02:08:45.723Z,35.33
2019-02-22T02:11:15.219Z,33.70
2019-02-22T02:13:44.736Z,38.90
2019-02-22T02:16:14.236Z,44.00
2019-02-22T02:18:43.746Z,36.03
2019-02-22T02:21:13.247Z,30.43
2019-02-22T02:23:42.755Z,35.63
2019-02-22T02:26:12.264Z,40.13
2019-02-22T02:28:41.775Z,32.97
2019-02-22T02:31:11.293Z,34.95
2019-02-22T02:33:40.788Z,38.90
2019-02-22T02:36:10.300Z,37.48
2019-02-22T02:38:39.796Z,28.83
2019-02-22T02:41:11.469Z,37.73
2019-02-22T02:43:40.549Z,36.00
2019-02-22T02:46:10.030Z,32.40
2019-02-22T02:48:39.599Z,35.67
2019-02-22T02:51:09.097Z,40.43
2019-02-22T02:53:38.609Z,34.97
2019-02-22T02:56:08.140Z,36.83
2019-02-22T02:58:37.655Z,32.63
2019-02-22T03:01:07.140Z,35.93
2019-02-22T03:03:36.801Z,33.70
2019-02-22T03:06:16.922Z,31.48
2019-02-22T03:08:46.429Z,28.10
2019-02-22T03:11:20.592Z,28.67
2019-02-22T03:13:47.192Z,31.68
2019-02-22T03:16:16.766Z,33.85
2019-02-22T03:18:46.262Z,28.60
2019-02-22T03:21:15.762Z,29.63
2019-02-22T03:23:45.274Z,26.13
2019-02-22T03:26:15.722Z,29.33
2019-02-22T03:28:45.238Z,28.37
2019-02-22T03:31:14.750Z,32.20
2019-02-22T03:33:44.289Z,27.67
2019-02-22T03:36:13.763Z,26.37
2019-02-22T03:38:43.274Z,23.95
2019-02-22T03:41:12.792Z,24.02
2019-02-22T03:43:42.294Z,24.85
2019-02-22T03:46:11.798Z,24.97
2019-02-22T03:48:41.310Z,21.43
2019-02-22T03:51:10.872Z,22.27
2019-02-22T03:53:42.019Z,27.35
2019-02-22T03:56:11.792Z,25.02
2019-02-22T03:58:41.362Z,20.68
2019-02-22T04:01:10.999Z,25.40
2019-02-22T04:03:40.570Z,22.55
2019-02-22T04:06:10.137Z,20.60
2019-02-22T04:08:39.628Z,23.53
2019-02-22T04:11:09.125Z,25.75
2019-02-22T04:13:38.701Z,26.45
2019-02-22T04:16:08.253Z,23.80
2019-02-22T04:18:37.935Z,24.60
2019-02-22T04:21:07.498Z,23.87
2019-02-22T04:23:36.985Z,24.30
2019-02-22T04:26:06.562Z,28.60
2019-02-22T04:28:36.058Z,21.30
2019-02-22T04:31:05.647Z,24.70
2019-02-22T04:33:35.242Z,21.85
2019-02-22T04:36:04.746Z,24.55
2019-02-22T04:38:34.257Z,23.52
2019-02-22T04:41:03.771Z,26.07
2019-02-22T04:43:33.366Z,21.48
2019-02-22T04:46:02.853Z,27.00
2019-02-22T04:48:32.369Z,25.45
2019-02-22T04:51:01.867Z,27.33
2019-02-22T04:53:31.428Z,27.87
2019-02-22T04:56:00.934Z,23.07
2019-02-22T04:58:30.431Z,28.43
2019-02-22T05:00:59.939Z,25.48
2019-02-22T05:03:29.439Z,26.20
2019-02-22T05:05:58.941Z,21.23
2019-02-22T05:08:28.449Z,24.75
2019-02-22T05:10:57.982Z,22.98
2019-02-22T05:13:27.488Z,22.95
2019-02-22T05:15:56.981Z,23.33
2019-02-22T05:18:26.502Z,24.17
2019-02-22T05:20:56.000Z,25.90
2019-02-22T05:23:25.508Z,22.77
2019-02-22T05:25:55.055Z,26.37
2019-02-22T05:28:24.554Z,29.47
2019-02-22T05:30:54.073Z,31.73
2019-02-22T05:33:23.566Z,25.07
2019-02-22T05:35:53.065Z,27.90
2019-02-22T05:38:22.574Z,27.90
2019-02-22T05:40:52.094Z,30.37
2019-02-22T05:43:21.575Z,28.45
2019-02-22T05:45:51.169Z,29.77
2019-02-22T05:48:20.675Z,25.67
2019-02-22T05:50:50.178Z,30.60
2019-02-22T05:53:19.661Z,28.73
2019-02-22T05:55:49.156Z,34.88
2019-02-22T05:58:18.674Z,34.88
2019-02-22T06:00:48.174Z,34.15
2019-02-22T06:03:17.671Z,34.87
2019-02-22T06:05:47.630Z,35.57
2019-02-22T06:08:17.193Z,38.08
2019-02-22T06:10:46.685Z,43.83
2019-02-22T06:13:16.212Z,38.13
2019-02-22T06:15:45.718Z,33.05
2019-02-22T06:18:15.233Z,32.93
2019-02-22T06:20:44.728Z,35.10
2019-02-22T06:23:14.245Z,39.07
2019-02-22T06:25:43.761Z,36.47
2019-02-22T06:28:13.267Z,35.05
2019-02-22T06:30:42.753Z,40.40
2019-02-22T06:33:12.294Z,35.63
2019-02-22T06:35:41.803Z,35.20
2019-02-22T06:38:11.361Z,40.77
2019-02-22T06:40:40.877Z,35.10
2019-02-22T06:43:10.458Z,35.30
2019-02-22T06:45:39.951Z,37.47
2019-02-22T06:48:09.455Z,35.00
2019-02-22T06:50:38.965Z,34.20
2019-02-22T06:53:08.555Z,34.80
2019-02-22T06:55:38.074Z,34.23
2019-02-22T06:58:07.598Z,34.30
2019-02-22T07:00:37.138Z,38.83
2019-02-22T07:03:12.452Z,38.10
2019-02-22T07:05:42.008Z,36.20
2019-02-22T07:08:11.491Z,38.47
2019-02-22T07:10:54.717Z,36.47
2019-02-22T07:13:24.563Z,37.53
2019-02-22T07:15:54.155Z,31.03
2019-02-22T07:18:23.677Z,36.08
2019-02-22T07:20:53.194Z,37.38
2019-02-22T07:23:22.809Z,34.33
2019-02-22T07:25:52.298Z,36.90
2019-02-22T07:28:21.810Z,36.63
2019-02-22T07:30:51.316Z,32.65
2019-02-22T07:33:20.842Z,34.43
2019-02-22T07:35:50.419Z,42.20
2019-02-22T07:38:19.917Z,35.23
2019-02-22T07:40:49.436Z,46.17
2019-02-22T07:43:18.948Z,33.70
2019-02-22T07:45:48.445Z,35.43
2019-02-22T07:48:17.939Z,36.43
2019-02-22T07:50:56.868Z,38.47
2019-02-22T07:53:18.663Z,36.07
2019-02-22T07:55:48.476Z,36.03
2019-02-22T07:58:18.048Z,34.17
2019-02-22T08:00:47.654Z,37.87
2019-02-22T08:03:17.150Z,42.60
2019-02-22T08:05:46.669Z,37.37
2019-02-22T08:08:16.157Z,42.97
2019-02-22T08:10:45.726Z,35.93
2019-02-22T08:13:19.783Z,39.67
2019-02-22T08:15:46.501Z,36.57
2019-02-22T08:18:16.025Z,49.70
2019-02-22T08:20:45.541Z,39.27
2019-02-22T08:23:15.193Z,37.90
2019-02-22T08:25:44.712Z,43.00
2019-02-22T08:28:14.206Z,40.35
2019-02-22T08:30:43.691Z,47.30
2019-02-22T08:33:13.187Z,41.73
2019-02-22T08:35:42.711Z,45.70
2019-02-22T08:38:12.211Z,51.83
2019-02-22T08:40:41.738Z,41.83
2019-02-22T08:43:11.226Z,46.60
2019-02-22T08:45:40.713Z,47.77
2019-02-22T08:48:10.217Z,42.50
2019-02-22T08:50:39.731Z,44.23
2019-02-22T08:53:09.246Z,45.07
2019-02-22T08:55:38.753Z,40.03
2019-02-22T08:58:08.244Z,37.00
2019-02-22T09:00:37.893Z,55.10
2019-02-22T09:03:07.450Z,41.90
2019-02-22T09:05:37.049Z,40.60
2019-02-22T09:08:06.618Z,34.97
2019-02-22T09:10:36.128Z,41.10
2019-02-22T09:13:05.656Z,38.50
2019-02-22T09:15:36.149Z,41.90
2019-02-22T09:18:05.654Z,36.33
2019-02-22T09:20:35.140Z,34.87
2019-02-22T09:23:07.298Z,32.43
2019-02-22T09:25:36.915Z,43.57
2019-02-22T09:28:06.494Z,34.03
2019-02-22T09:30:36.003Z,38.13
2019-02-22T09:33:05.508Z,40.40
2019-02-22T09:35:35.897Z,31.73
2019-02-22T09:38:05.733Z,30.97
2019-02-22T09:40:35.291Z,33.37
2019-02-22T09:43:04.801Z,33.97
2019-02-22T09:45:34.360Z,34.17
2019-02-22T09:48:03.949Z,29.97
2019-02-22T09:50:33.479Z,31.67
2019-02-22T09:53:02.984Z,35.90
2019-02-22T09:55:32.609Z,30.97
2019-02-22T09:58:02.112Z,30.50
2019-02-22T10:00:31.601Z,28.77
2019-02-22T10:03:01.134Z,27.37
2019-02-22T10:05:30.768Z,26.67
2019-02-22T10:08:00.294Z,28.13
2019-02-22T10:10:29.808Z,28.00
2019-02-22T10:12:59.403Z,29.43
2019-02-22T10:15:28.904Z,29.60
2019-02-22T10:17:58.408Z,28.10
2019-02-22T10:20:27.985Z,28.03
2019-02-22T10:22:57.487Z,22.50
2019-02-22T10:25:26.998Z,20.40
2019-02-22T10:27:56.491Z,23.83
2019-02-22T10:30:26.012Z,22.23
2019-02-22T10:32:55.508Z,22.73
2019-02-22T10:35:24.999Z,20.77
2019-02-22T10:37:54.484Z,23.07
2019-02-22T10:40:24.007Z,18.07
2019-02-22T10:42:53.507Z,19.50
2019-02-22T10:45:22.994Z,21.13
2019-02-22T10:47:52.520Z,19.03
2019-02-22T10:50:22.200Z,19.73
2019-02-22T10:53:01.786Z,18.70
2019-02-22T10:55:22.989Z,20.03
2019-02-22T10:57:52.495Z,18.97
2019-02-22T11:00:22.150Z,18.50
2019-02-22T11:02:51.632Z,16.33
2019-02-22T11:05:21.134Z,20.27
2019-02-22T11:07:50.603Z,18.23
2019-02-22T11:10:20.182Z,18.03
2019-02-22T11:12:49.674Z,19.43
2019-02-22T11:15:19.320Z,19.87
2019-02-22T11:17:48.832Z,19.17
2019-02-22T11:20:18.359Z,16.57
2019-02-22T11:22:47.835Z,15.90
2019-02-22T11:25:18.019Z,14.40
2019-02-22T11:27:47.523Z,13.63
2019-02-22T11:30:17.138Z,9.30
2019-02-22T11:32:46.663Z,11.50
2019-02-22T11:35:16.152Z,14.87
2019-02-22T11:37:45.642Z,13.17
2019-02-22T11:40:15.138Z,14.27
2019-02-22T11:42:44.628Z,12.53
2019-02-22T11:45:14.122Z,9.80
2019-02-22T11:47:43.608Z,10.20
2019-02-22T11:50:14.135Z,12.43
2019-02-22T11:52:43.615Z,10.27
2019-02-22T11:55:13.339Z,8.60
2019-02-22T11:57:42.840Z,10.27
2019-02-22T12:00:18.974Z,10.50
2019-02-22T12:02:49.031Z,9.50
2019-02-22T12:05:18.532Z,6.57
2019-02-22T12:07:48.213Z,8.77
2019-02-22T12:10:17.750Z,9.77
2019-02-22T12:12:47.246Z,12.03
2019-02-22T12:15:16.740Z,9.10
2019-02-22T12:17:46.223Z,12.70
2019-02-22T12:20:15.834Z,14.27
2019-02-22T12:22:45.343Z,9.30
2019-02-22T12:25:14.959Z,8.73
2019-02-22T12:27:44.481Z,11.00
2019-02-22T12:30:16.379Z,9.33
2019-02-22T12:32:45.865Z,8.70
2019-02-22T12:35:15.412Z,8.23
2019-02-22T12:37:44.914Z,10.90
2019-02-22T12:40:14.538Z,9.70
2019-02-22T12:42:44.093Z,11.23
2019-02-22T12:45:14.598Z,8.93
2019-02-22T12:47:44.099Z,8.90
2019-02-22T12:50:14.672Z,13.23
2019-02-22T12:52:44.195Z,9.43
2019-02-22T12:55:13.901Z,8.67
2019-02-22T12:57:43.379Z,7.93
2019-02-22T13:00:15.826Z,6.03
2019-02-22T13:02:45.358Z,5.40
2019-02-22T13:05:22.073Z,8.73
2019-02-22T13:07:52.691Z,5.10
2019-02-22T13:10:22.749Z,5.23
2019-02-22T13:12:52.308Z,5.00
2019-02-22T13:15:21.867Z,5.03
2019-02-22T13:17:51.534Z,3.73
2019-02-22T13:20:21.250Z,4.80
2019-02-22T13:22:50.742Z,3.70
2019-02-22T13:25:20.303Z,3.30
2019-02-22T13:27:49.810Z,3.33
2019-02-22T13:30:19.370Z,3.17
2019-02-22T13:32:48.932Z,3.17
2019-02-22T13:35:18.424Z,3.30
2019-02-22T13:37:47.923Z,3.83
2019-02-22T13:40:18.629Z,6.30
2019-02-22T13:42:48.211Z,2.70
2019-02-22T13:45:26.100Z,3.50
2019-02-22T13:47:49.183Z,3.87
2019-02-22T13:50:19.578Z,8.10
2019-02-22T13:52:49.150Z,3.60
2019-02-22T13:55:18.661Z,4.40
2019-02-22T13:57:48.154Z,3.17
2019-02-22T14:00:19.731Z,3.60
2019-02-22T14:02:49.348Z,3.53
2019-02-22T14:05:18.903Z,3.13
2019-02-22T14:07:57.024Z,2.63
2019-02-22T14:10:27.309Z,2.70
2019-02-22T14:12:56.927Z,3.80
2019-02-22T14:15:37.136Z,5.97
2019-02-22T14:17:57.664Z,3.17
2019-02-22T14:20:27.168Z,3.13
2019-02-22T14:22:56.741Z,4.10
2019-02-22T14:25:26.300Z,2.20
2019-02-22T14:27:55.863Z,4.57
2019-02-22T14:30:25.401Z,2.93
2019-02-22T14:32:54.909Z,3.60
2019-02-22T14:35:24.499Z,3.87
2019-02-22T14:37:54.063Z,3.47
2019-02-22T14:40:23.632Z,6.33
2019-02-22T14:42:53.124Z,3.73
2019-02-22T14:45:22.693Z,3.97
2019-02-22T14:47:52.175Z,3.93
2019-02-22T14:50:23.306Z,3.17
2019-02-22T14:52:53.103Z,3.03
2019-02-22T14:55:22.636Z,3.60
2019-02-22T14:57:52.188Z,7.80
2019-02-22T15:00:22.219Z,3.80
2019-02-22T15:02:51.720Z,2.80
2019-02-22T15:05:21.292Z,3.07
2019-02-22T15:07:50.866Z,4.50
2019-02-22T15:10:20.370Z,4.00
2019-02-22T15:12:49.925Z,3.73
2019-02-22T15:15:22.204Z,5.97
2019-02-22T15:17:53.367Z,3.30
2019-02-22T15:20:23.006Z,3.03
2019-02-22T15:22:52.639Z,4.10
2019-02-22T15:25:22.158Z,3.50
2019-02-22T15:27:51.639Z,3.47
2019-02-22T15:30:21.168Z,7.93
2019-02-22T15:32:50.602Z,4.97
2019-02-22T15:35:20.205Z,4.47
2019-02-22T15:37:49.733Z,4.40
2019-02-22T15:40:19.349Z,4.00
2019-02-22T15:42:48.819Z,5.17
2019-02-22T15:45:19.881Z,3.10
2019-02-22T15:47:49.679Z,4.37
2019-02-22T15:50:20.211Z,5.13
2019-02-22T15:52:50.594Z,3.60
2019-02-22T15:55:20.133Z,5.57
2019-02-22T15:57:49.740Z,4.63
2019-02-22T16:00:35.909Z,3.90
2019-02-22T16:03:05.771Z,4.33
2019-02-22T16:05:36.948Z,3.57
2019-02-22T16:08:07.651Z,7.60
2019-02-22T16:10:37.681Z,4.40
2019-02-22T16:13:07.338Z,3.77
2019-02-22T16:15:36.926Z,6.40
2019-02-22T16:18:06.427Z,6.57
2019-02-22T16:20:36.017Z,8.50
2019-02-22T16:23:05.532Z,6.70
2019-02-22T16:25:34.997Z,9.70
2019-02-22T16:28:04.589Z,7.20
2019-02-22T16:30:35.516Z,11.00
2019-02-22T16:33:05.096Z,8.47
2019-02-22T16:35:34.599Z,9.90
2019-02-22T16:38:04.265Z,8.17
2019-02-22T16:40:33.780Z,7.40
2019-02-22T16:43:03.265Z,8.70
2019-02-22T16:45:32.745Z,6.10
2019-02-22T16:48:02.297Z,7.30
2019-02-22T16:50:31.843Z,9.50
2019-02-22T16:53:01.350Z,8.97
2019-02-22T16:55:30.841Z,6.70
2019-02-22T16:58:00.410Z,9.50
2019-02-22T17:00:29.910Z,9.30
2019-02-22T17:02:59.416Z,8.80
2019-02-22T17:05:29.083Z,8.60
2019-02-22T17:07:58.639Z,9.23
2019-02-22T17:10:28.182Z,7.47
2019-02-22T17:12:57.705Z,6.73
2019-02-22T17:15:27.288Z,10.87
2019-02-22T17:17:56.784Z,7.60
2019-02-22T17:20:26.289Z,8.23
2019-02-22T17:22:55.784Z,5.10
2019-02-22T17:25:25.267Z,14.87
2019-02-22T17:27:54.843Z,4.77
2019-02-22T17:30:25.881Z,6.15
2019-02-22T17:32:55.402Z,5.70
2019-02-22T17:35:24.925Z,6.40
2019-02-22T17:37:54.381Z,5.00
2019-02-22T17:40:31.243Z,8.27
2019-02-22T17:43:00.809Z,3.25
2019-02-22T17:45:30.374Z,7.12
2019-02-22T17:47:59.892Z,10.03
2019-02-22T17:50:29.402Z,12.68
2019-02-22T17:52:58.904Z,13.93
2019-02-22T17:55:28.464Z,8.70
2019-02-22T17:57:58.082Z,8.43
2019-02-22T18:00:27.571Z,7.87
2019-02-22T18:02:57.053Z,6.95
2019-02-22T18:05:26.562Z,5.08
2019-02-22T18:07:56.043Z,5.37
2019-02-22T18:10:25.582Z,7.10
2019-02-22T18:12:55.073Z,13.15
2019-02-22T18:15:24.608Z,9.68
2019-02-22T18:17:54.180Z,8.08
2019-02-22T18:20:23.734Z,7.12
2019-02-22T18:22:53.218Z,8.15
2019-02-22T18:25:22.755Z,9.60
2019-02-22T18:27:52.242Z,7.67
2019-02-22T18:30:25.081Z,7.40
2019-02-22T18:32:54.588Z,9.20
2019-02-22T18:35:24.073Z,6.58
2019-02-22T18:37:53.568Z,7.83
2019-02-22T18:40:24.114Z,9.68
2019-02-22T18:42:53.625Z,11.83
2019-02-22T18:45:23.423Z,10.05
2019-02-22T18:47:52.935Z,10.10
2019-02-22T18:50:22.544Z,11.40
2019-02-22T18:52:52.101Z,8.83
2019-02-22T18:55:21.614Z,10.95
2019-02-22T18:57:51.192Z,11.53
2019-02-22T19:00:21.910Z,14.95
2019-02-22T19:02:51.478Z,8.58
2019-02-22T19:05:21.149Z,8.35
2019-02-22T19:07:50.639Z,9.80
2019-02-22T19:10:20.848Z,9.45
2019-02-22T19:12:50.324Z,9.38
2019-02-22T19:15:19.870Z,9.20
2019-02-22T19:17:49.424Z,12.05
2019-02-22T19:20:21.533Z,9.18
2019-02-22T19:22:51.051Z,11.55
2019-02-22T19:25:20.688Z,10.45
2019-02-22T19:27:50.361Z,12.63
2019-02-22T19:30:26.157Z,11.70
2019-02-22T19:32:57.076Z,11.63
2019-02-22T19:35:26.572Z,12.53
2019-02-22T19:37:56.140Z,14.80
2019-02-22T19:40:28.154Z,16.70
2019-02-22T19:42:57.656Z,12.43
2019-02-22T19:45:27.254Z,10.55
2019-02-22T19:47:56.910Z,13.45
2019-02-22T19:50:28.383Z,21.02
2019-02-22T19:52:57.921Z,12.82
2019-02-22T19:55:27.451Z,10.23
2019-02-22T19:57:57.076Z,12.75
2019-02-22T20:00:26.702Z,13.43
2019-02-22T20:02:56.185Z,11.22
2019-02-22T20:05:25.763Z,13.90
2019-02-22T20:07:55.254Z,14.40
2019-02-22T20:10:25.180Z,19.95
2019-02-22T20:12:54.696Z,14.33
2019-02-22T20:15:24.366Z,13.60
2019-02-22T20:17:55.113Z,15.32
2019-02-22T20:20:24.887Z,16.02
2019-02-22T20:22:54.795Z,16.67
2019-02-22T20:25:24.332Z,13.90
2019-02-22T20:27:53.859Z,18.70
2019-02-22T20:30:23.452Z,12.93
2019-02-22T20:32:52.962Z,14.05
2019-02-22T20:35:30.109Z,12.95
2019-02-22T20:37:59.783Z,15.68
2019-02-22T20:40:29.282Z,14.98
2019-02-22T20:42:58.867Z,16.27
2019-02-22T20:45:28.498Z,17.35
2019-02-22T20:48:05.287Z,18.30
2019-02-22T20:50:29.399Z,10.38
2019-02-22T20:52:58.926Z,14.20
2019-02-22T20:55:28.906Z,16.65
2019-02-22T20:58:01.488Z,15.80
2019-02-22T21:00:31.080Z,13.45
2019-02-22T21:03:00.687Z,11.88
2019-02-22T21:05:30.283Z,12.03
2019-02-22T21:07:59.794Z,19.40
2019-02-22T21:10:29.344Z,13.72
2019-02-22T21:12:58.901Z,15.15
2019-02-22T21:15:28.405Z,20.57
2019-02-22T21:17:57.916Z,19.50
2019-02-22T21:20:27.416Z,14.98
2019-02-22T21:22:56.935Z,20.08
2019-02-22T21:25:26.599Z,20.37
2019-02-22T21:27:56.132Z,21.25
2019-02-22T21:30:25.762Z,14.65
2019-02-22T21:32:55.285Z,14.10
2019-02-22T21:35:24.759Z,15.60
2019-02-22T21:37:54.326Z,13.03
2019-02-22T21:40:24.893Z,11.53
2019-02-22T21:42:54.408Z,11.18
2019-02-22T21:45:24.039Z,14.35
2019-02-22T21:47:55.524Z,17.42
2019-02-22T21:50:24.745Z,14.80
2019-02-22T21:52:54.245Z,12.55
2019-02-22T21:55:23.822Z,21.40
2019-02-22T21:57:53.318Z,15.25
2019-02-22T22:00:29.349Z,9.50
2019-02-22T22:02:58.856Z,15.35
2019-02-22T22:05:28.444Z,13.68
2019-02-22T22:07:57.912Z,13.95
2019-02-22T22:10:27.413Z,19.15
2019-02-22T22:12:57.930Z,11.78
2019-02-22T22:15:27.405Z,17.02
2019-02-22T22:17:56.968Z,12.75
2019-02-22T22:20:26.621Z,16.77
2019-02-22T22:22:56.142Z,15.60
2019-02-22T22:25:25.688Z,14.65
2019-02-22T22:27:55.252Z,13.55
2019-02-22T22:30:24.757Z,13.72
2019-02-22T22:32:54.241Z,11.63
2019-02-22T22:35:23.739Z,9.83
2019-02-22T22:37:53.266Z,12.15
2019-02-22T22:40:22.773Z,11.33
2019-02-22T22:42:52.270Z,12.53
2019-02-22T22:45:21.788Z,9.53
2019-02-22T22:47:51.289Z,10.72
2019-02-22T22:50:20.796Z,11.03
2019-02-22T22:52:50.313Z,11.25
2019-02-22T22:55:19.805Z,10.15
2019-02-22T22:57:49.324Z,11.15
2019-02-22T23:00:49.969Z,12.13
2019-02-22T23:03:20.472Z,12.60
2019-02-22T23:05:50.023Z,11.03
2019-02-22T23:08:19.592Z,13.30
2019-02-22T23:10:49.395Z,13.85
2019-02-22T23:13:19.012Z,11.63
2019-02-22T23:15:48.649Z,19.10
2019-02-22T23:18:18.126Z,13.90
2019-02-22T23:20:47.747Z,11.78
2019-02-22T23:23:17.386Z,16.77
2019-02-22T23:25:46.914Z,10.45
2019-02-22T23:28:16.457Z,18.40
2019-02-22T23:30:46.025Z,10.88
2019-02-22T23:33:15.524Z,9.65
2019-02-22T23:35:45.030Z,12.23
2019-02-22T23:38:14.798Z,14.85
2019-02-22T23:40:44.358Z,14.05
2019-02-22T23:43:13.864Z,13.85
2019-02-22T23:45:43.428Z,19.25
2019-02-22T23:48:12.939Z,13.78
2019-02-22T23:50:42.512Z,10.78
2019-02-22T23:53:11.999Z,12.03
2019-02-22T23:55:41.490Z,13.10
2019-02-22T23:58:10.980Z,20.25
